sensor_id;sensor_type;location;lat;lon;timestamp;P1;durP1;ratioP1;P2;durP2;ratioP2
16159;SDS011;8185;57.818;15.224;2022-08-03T00:01:06;1.30;;;1.10;;
16159;SDS011;8185;57.818;15.224;2022-08-03T00:03:33;2.83;;;1.37;;
16159;SDS011;8185;57.818;15.224;2022-08-03T00:06:00;1.10;;;1.00;;
16159;SDS011;8185;57.818;15.224;2022-08-03T00:08:28;2.93;;;1.27;;
16159;SDS011;8185;57.818;15.224;2022-08-03T00:10:55;2.63;;;1.13;;
16159;SDS011;8185;57.818;15.224;2022-08-03T00:13:22;4.50;;;1.20;;
16159;SDS011;8185;57.818;15.224;2022-08-03T00:15:50;6.20;;;1.40;;
16159;SDS011;8185;57.818;15.224;2022-08-03T00:18:18;2.73;;;1.63;;
16159;SDS011;8185;57.818;15.224;2022-08-03T00:20:46;1.93;;;1.30;;
16159;SDS011;8185;57.818;15.224;2022-08-03T00:23:13;2.77;;;1.20;;
16159;SDS011;8185;57.818;15.224;2022-08-03T00:25:40;3.17;;;1.33;;
16159;SDS011;8185;57.818;15.224;2022-08-03T00:28:08;8.33;;;1.83;;
16159;SDS011;8185;57.818;15.224;2022-08-03T00:30:35;3.60;;;2.00;;
16159;SDS011;8185;57.818;15.224;2022-08-03T00:33:02;2.33;;;1.53;;
16159;SDS011;8185;57.818;15.224;2022-08-03T00:35:31;2.97;;;1.60;;
16159;SDS011;8185;57.818;15.224;2022-08-03T00:37:59;3.70;;;1.57;;
16159;SDS011;8185;57.818;15.224;2022-08-03T00:40:26;3.30;;;1.80;;
16159;SDS011;8185;57.818;15.224;2022-08-03T00:42:54;3.83;;;1.57;;
16159;SDS011;8185;57.818;15.224;2022-08-03T00:45:23;3.77;;;1.70;;
16159;SDS011;8185;57.818;15.224;2022-08-03T00:47:53;3.30;;;1.83;;
16159;SDS011;8185;57.818;15.224;2022-08-03T00:50:21;3.40;;;1.70;;
16159;SDS011;8185;57.818;15.224;2022-08-03T00:52:52;3.40;;;2.10;;
16159;SDS011;8185;57.818;15.224;2022-08-03T00:55:21;3.00;;;1.83;;
16159;SDS011;8185;57.818;15.224;2022-08-03T00:57:48;5.77;;;2.03;;
16159;SDS011;8185;57.818;15.224;2022-08-03T01:00:16;4.57;;;2.80;;
16159;SDS011;8185;57.818;15.224;2022-08-03T01:02:45;6.63;;;2.00;;
16159;SDS011;8185;57.818;15.224;2022-08-03T01:05:13;3.20;;;2.00;;
16159;SDS011;8185;57.818;15.224;2022-08-03T01:07:41;3.73;;;1.90;;
16159;SDS011;8185;57.818;15.224;2022-08-03T01:10:21;5.63;;;1.80;;
16159;SDS011;8185;57.818;15.224;2022-08-03T01:12:55;3.20;;;2.07;;
16159;SDS011;8185;57.818;15.224;2022-08-03T01:15:29;3.30;;;2.40;;
16159;SDS011;8185;57.818;15.224;2022-08-03T01:18:04;5.53;;;2.87;;
16159;SDS011;8185;57.818;15.224;2022-08-03T01:20:38;7.83;;;1.90;;
16159;SDS011;8185;57.818;15.224;2022-08-03T01:23:11;4.63;;;2.43;;
16159;SDS011;8185;57.818;15.224;2022-08-03T01:25:58;3.90;;;2.30;;
16159;SDS011;8185;57.818;15.224;2022-08-03T01:28:47;5.60;;;2.53;;
16159;SDS011;8185;57.818;15.224;2022-08-03T01:31:36;4.17;;;2.10;;
16159;SDS011;8185;57.818;15.224;2022-08-03T01:34:08;3.67;;;2.60;;
16159;SDS011;8185;57.818;15.224;2022-08-03T01:36:42;7.03;;;2.53;;
16159;SDS011;8185;57.818;15.224;2022-08-03T01:39:14;2.70;;;1.93;;
16159;SDS011;8185;57.818;15.224;2022-08-03T01:41:43;5.80;;;2.83;;
16159;SDS011;8185;57.818;15.224;2022-08-03T01:44:15;5.43;;;2.23;;
16159;SDS011;8185;57.818;15.224;2022-08-03T01:46:44;3.97;;;2.57;;
16159;SDS011;8185;57.818;15.224;2022-08-03T01:49:14;4.03;;;2.93;;
16159;SDS011;8185;57.818;15.224;2022-08-03T01:51:42;4.67;;;3.03;;
16159;SDS011;8185;57.818;15.224;2022-08-03T01:54:13;9.10;;;3.50;;
16159;SDS011;8185;57.818;15.224;2022-08-03T01:56:41;5.50;;;3.47;;
16159;SDS011;8185;57.818;15.224;2022-08-03T01:59:10;4.73;;;2.77;;
16159;SDS011;8185;57.818;15.224;2022-08-03T02:01:40;6.23;;;2.87;;
16159;SDS011;8185;57.818;15.224;2022-08-03T02:04:10;6.00;;;3.57;;
16159;SDS011;8185;57.818;15.224;2022-08-03T02:06:40;5.03;;;3.47;;
16159;SDS011;8185;57.818;15.224;2022-08-03T02:09:08;4.93;;;3.53;;
16159;SDS011;8185;57.818;15.224;2022-08-03T02:11:37;4.67;;;3.33;;
16159;SDS011;8185;57.818;15.224;2022-08-03T02:14:06;9.93;;;3.53;;
16159;SDS011;8185;57.818;15.224;2022-08-03T02:16:34;5.60;;;3.50;;
16159;SDS011;8185;57.818;15.224;2022-08-03T02:19:03;7.50;;;3.83;;
16159;SDS011;8185;57.818;15.224;2022-08-03T02:21:35;4.60;;;3.33;;
16159;SDS011;8185;57.818;15.224;2022-08-03T02:24:03;7.30;;;3.90;;
16159;SDS011;8185;57.818;15.224;2022-08-03T02:26:32;7.43;;;4.47;;
16159;SDS011;8185;57.818;15.224;2022-08-03T02:29:04;5.23;;;3.20;;
16159;SDS011;8185;57.818;15.224;2022-08-03T02:31:35;6.13;;;4.03;;
16159;SDS011;8185;57.818;15.224;2022-08-03T02:34:05;5.93;;;4.33;;
16159;SDS011;8185;57.818;15.224;2022-08-03T02:36:39;10.80;;;4.23;;
16159;SDS011;8185;57.818;15.224;2022-08-03T02:39:09;6.33;;;4.07;;
16159;SDS011;8185;57.818;15.224;2022-08-03T02:41:41;5.47;;;4.07;;
16159;SDS011;8185;57.818;15.224;2022-08-03T02:44:11;7.13;;;3.40;;
16159;SDS011;8185;57.818;15.224;2022-08-03T02:46:42;7.90;;;3.63;;
16159;SDS011;8185;57.818;15.224;2022-08-03T02:49:12;5.50;;;3.63;;
16159;SDS011;8185;57.818;15.224;2022-08-03T02:51:44;6.23;;;4.00;;
16159;SDS011;8185;57.818;15.224;2022-08-03T02:54:14;5.63;;;3.63;;
16159;SDS011;8185;57.818;15.224;2022-08-03T02:56:45;8.70;;;3.50;;
16159;SDS011;8185;57.818;15.224;2022-08-03T02:59:13;9.50;;;3.60;;
16159;SDS011;8185;57.818;15.224;2022-08-03T03:01:43;4.80;;;3.00;;
16159;SDS011;8185;57.818;15.224;2022-08-03T03:04:11;4.80;;;2.87;;
16159;SDS011;8185;57.818;15.224;2022-08-03T03:06:40;5.03;;;3.33;;
16159;SDS011;8185;57.818;15.224;2022-08-03T03:09:10;8.73;;;3.20;;
16159;SDS011;8185;57.818;15.224;2022-08-03T03:11:38;5.57;;;3.03;;
16159;SDS011;8185;57.818;15.224;2022-08-03T03:14:08;6.10;;;3.30;;
16159;SDS011;8185;57.818;15.224;2022-08-03T03:16:37;6.80;;;3.13;;
16159;SDS011;8185;57.818;15.224;2022-08-03T03:19:05;4.80;;;2.80;;
16159;SDS011;8185;57.818;15.224;2022-08-03T03:21:34;4.83;;;3.10;;
16159;SDS011;8185;57.818;15.224;2022-08-03T03:24:03;4.27;;;2.77;;
16159;SDS011;8185;57.818;15.224;2022-08-03T03:26:33;4.47;;;2.60;;
16159;SDS011;8185;57.818;15.224;2022-08-03T03:29:01;4.00;;;2.67;;
16159;SDS011;8185;57.818;15.224;2022-08-03T03:31:29;6.20;;;2.60;;
16159;SDS011;8185;57.818;15.224;2022-08-03T03:33:56;4.97;;;2.50;;
16159;SDS011;8185;57.818;15.224;2022-08-03T03:36:24;3.90;;;2.60;;
16159;SDS011;8185;57.818;15.224;2022-08-03T03:38:51;6.03;;;2.67;;
16159;SDS011;8185;57.818;15.224;2022-08-03T03:41:18;3.97;;;2.63;;
16159;SDS011;8185;57.818;15.224;2022-08-03T03:43:47;4.23;;;2.50;;
16159;SDS011;8185;57.818;15.224;2022-08-03T03:46:15;5.43;;;2.60;;
16159;SDS011;8185;57.818;15.224;2022-08-03T03:48:43;2.80;;;2.60;;
16159;SDS011;8185;57.818;15.224;2022-08-03T03:51:10;3.87;;;2.43;;
16159;SDS011;8185;57.818;15.224;2022-08-03T03:53:38;7.47;;;2.47;;
16159;SDS011;8185;57.818;15.224;2022-08-03T03:56:05;4.53;;;2.93;;
16159;SDS011;8185;57.818;15.224;2022-08-03T03:58:32;6.43;;;3.20;;
16159;SDS011;8185;57.818;15.224;2022-08-03T04:01:01;4.83;;;2.63;;
16159;SDS011;8185;57.818;15.224;2022-08-03T04:03:28;7.80;;;2.50;;
16159;SDS011;8185;57.818;15.224;2022-08-03T04:05:55;4.70;;;2.93;;
16159;SDS011;8185;57.818;15.224;2022-08-03T04:08:40;5.23;;;2.80;;
16159;SDS011;8185;57.818;15.224;2022-08-03T04:11:26;8.03;;;3.70;;
16159;SDS011;8185;57.818;15.224;2022-08-03T04:13:59;4.97;;;2.80;;
16159;SDS011;8185;57.818;15.224;2022-08-03T04:16:32;5.90;;;3.23;;
16159;SDS011;8185;57.818;15.224;2022-08-03T04:19:03;3.10;;;2.77;;
16159;SDS011;8185;57.818;15.224;2022-08-03T04:21:34;5.73;;;2.83;;
16159;SDS011;8185;57.818;15.224;2022-08-03T04:24:03;8.00;;;3.27;;
16159;SDS011;8185;57.818;15.224;2022-08-03T04:26:35;4.90;;;3.20;;
16159;SDS011;8185;57.818;15.224;2022-08-03T04:29:05;5.40;;;2.90;;
16159;SDS011;8185;57.818;15.224;2022-08-03T04:31:36;4.43;;;2.70;;
16159;SDS011;8185;57.818;15.224;2022-08-03T04:34:04;5.93;;;2.67;;
16159;SDS011;8185;57.818;15.224;2022-08-03T04:36:34;4.57;;;2.90;;
16159;SDS011;8185;57.818;15.224;2022-08-03T04:39:15;5.40;;;3.23;;
16159;SDS011;8185;57.818;15.224;2022-08-03T04:41:45;4.83;;;3.13;;
16159;SDS011;8185;57.818;15.224;2022-08-03T04:44:14;3.50;;;2.57;;
16159;SDS011;8185;57.818;15.224;2022-08-03T04:46:44;4.57;;;3.00;;
16159;SDS011;8185;57.818;15.224;2022-08-03T04:49:12;3.87;;;2.53;;
16159;SDS011;8185;57.818;15.224;2022-08-03T04:51:39;5.90;;;3.10;;
16159;SDS011;8185;57.818;15.224;2022-08-03T04:54:10;4.93;;;3.20;;
16159;SDS011;8185;57.818;15.224;2022-08-03T04:56:38;8.27;;;3.27;;
16159;SDS011;8185;57.818;15.224;2022-08-03T04:59:05;5.87;;;3.73;;
16159;SDS011;8185;57.818;15.224;2022-08-03T05:01:33;4.67;;;3.03;;
16159;SDS011;8185;57.818;15.224;2022-08-03T05:04:01;7.60;;;3.80;;
16159;SDS011;8185;57.818;15.224;2022-08-03T05:06:29;8.13;;;3.20;;
16159;SDS011;8185;57.818;15.224;2022-08-03T05:08:56;5.77;;;3.30;;
16159;SDS011;8185;57.818;15.224;2022-08-03T05:11:23;5.50;;;3.43;;
16159;SDS011;8185;57.818;15.224;2022-08-03T05:13:51;6.33;;;3.43;;
16159;SDS011;8185;57.818;15.224;2022-08-03T05:16:18;3.93;;;3.10;;
16159;SDS011;8185;57.818;15.224;2022-08-03T05:18:45;7.23;;;3.80;;
16159;SDS011;8185;57.818;15.224;2022-08-03T05:21:14;5.47;;;3.43;;
16159;SDS011;8185;57.818;15.224;2022-08-03T05:23:41;8.90;;;3.70;;
16159;SDS011;8185;57.818;15.224;2022-08-03T05:26:08;4.27;;;3.13;;
16159;SDS011;8185;57.818;15.224;2022-08-03T05:28:37;9.00;;;3.60;;
16159;SDS011;8185;57.818;15.224;2022-08-03T05:31:04;5.90;;;3.40;;
16159;SDS011;8185;57.818;15.224;2022-08-03T05:33:31;5.10;;;2.90;;
16159;SDS011;8185;57.818;15.224;2022-08-03T05:36:02;7.80;;;3.23;;
16159;SDS011;8185;57.818;15.224;2022-08-03T05:38:31;4.97;;;3.20;;
16159;SDS011;8185;57.818;15.224;2022-08-03T05:40:58;8.23;;;3.67;;
16159;SDS011;8185;57.818;15.224;2022-08-03T05:43:25;4.70;;;3.03;;
16159;SDS011;8185;57.818;15.224;2022-08-03T05:45:52;4.47;;;3.27;;
16159;SDS011;8185;57.818;15.224;2022-08-03T05:48:20;3.90;;;3.10;;
16159;SDS011;8185;57.818;15.224;2022-08-03T05:50:47;4.87;;;3.00;;
16159;SDS011;8185;57.818;15.224;2022-08-03T05:53:14;4.77;;;3.43;;
16159;SDS011;8185;57.818;15.224;2022-08-03T05:55:43;4.27;;;3.43;;
16159;SDS011;8185;57.818;15.224;2022-08-03T05:58:10;4.53;;;3.50;;
16159;SDS011;8185;57.818;15.224;2022-08-03T06:00:37;5.43;;;3.30;;
16159;SDS011;8185;57.818;15.224;2022-08-03T06:03:05;7.80;;;3.40;;
16159;SDS011;8185;57.818;15.224;2022-08-03T06:05:32;7.20;;;4.40;;
16159;SDS011;8185;57.818;15.224;2022-08-03T06:08:00;6.23;;;3.73;;
16159;SDS011;8185;57.818;15.224;2022-08-03T06:10:28;7.67;;;3.57;;
16159;SDS011;8185;57.818;15.224;2022-08-03T06:12:56;4.77;;;3.97;;
16159;SDS011;8185;57.818;15.224;2022-08-03T06:15:24;6.70;;;3.97;;
16159;SDS011;8185;57.818;15.224;2022-08-03T06:17:51;6.20;;;3.80;;
16159;SDS011;8185;57.818;15.224;2022-08-03T06:20:19;4.97;;;3.53;;
16159;SDS011;8185;57.818;15.224;2022-08-03T06:22:47;5.07;;;4.07;;
16159;SDS011;8185;57.818;15.224;2022-08-03T06:25:14;5.67;;;3.50;;
16159;SDS011;8185;57.818;15.224;2022-08-03T06:27:42;3.93;;;3.37;;
16159;SDS011;8185;57.818;15.224;2022-08-03T06:30:11;3.73;;;3.40;;
16159;SDS011;8185;57.818;15.224;2022-08-03T06:32:39;5.90;;;3.60;;
16159;SDS011;8185;57.818;15.224;2022-08-03T06:35:07;6.43;;;3.53;;
16159;SDS011;8185;57.818;15.224;2022-08-03T06:37:42;5.10;;;3.37;;
16159;SDS011;8185;57.818;15.224;2022-08-03T06:40:10;5.90;;;4.00;;
16159;SDS011;8185;57.818;15.224;2022-08-03T06:42:39;6.60;;;3.93;;
16159;SDS011;8185;57.818;15.224;2022-08-03T06:45:06;6.80;;;3.70;;
16159;SDS011;8185;57.818;15.224;2022-08-03T06:47:36;4.37;;;3.60;;
16159;SDS011;8185;57.818;15.224;2022-08-03T06:50:04;4.50;;;3.27;;
16159;SDS011;8185;57.818;15.224;2022-08-03T06:52:33;5.27;;;3.37;;
16159;SDS011;8185;57.818;15.224;2022-08-03T06:55:01;7.60;;;3.30;;
16159;SDS011;8185;57.818;15.224;2022-08-03T06:57:28;6.17;;;3.40;;
16159;SDS011;8185;57.818;15.224;2022-08-03T06:59:55;4.47;;;3.57;;
16159;SDS011;8185;57.818;15.224;2022-08-03T07:02:26;6.17;;;3.77;;
16159;SDS011;8185;57.818;15.224;2022-08-03T07:04:55;5.03;;;3.43;;
16159;SDS011;8185;57.818;15.224;2022-08-03T07:07:22;6.83;;;4.03;;
16159;SDS011;8185;57.818;15.224;2022-08-03T07:09:50;4.43;;;3.30;;
16159;SDS011;8185;57.818;15.224;2022-08-03T07:12:17;4.57;;;3.30;;
16159;SDS011;8185;57.818;15.224;2022-08-03T07:14:44;6.67;;;3.50;;
16159;SDS011;8185;57.818;15.224;2022-08-03T07:17:12;5.83;;;3.90;;
16159;SDS011;8185;57.818;15.224;2022-08-03T07:19:39;6.33;;;4.07;;
16159;SDS011;8185;57.818;15.224;2022-08-03T07:22:07;4.87;;;4.00;;
16159;SDS011;8185;57.818;15.224;2022-08-03T07:24:35;4.90;;;3.43;;
16159;SDS011;8185;57.818;15.224;2022-08-03T07:27:03;6.37;;;3.80;;
16159;SDS011;8185;57.818;15.224;2022-08-03T07:29:30;3.73;;;3.40;;
16159;SDS011;8185;57.818;15.224;2022-08-03T07:31:57;7.73;;;4.40;;
16159;SDS011;8185;57.818;15.224;2022-08-03T07:34:24;3.90;;;3.53;;
16159;SDS011;8185;57.818;15.224;2022-08-03T07:36:51;6.13;;;4.07;;
16159;SDS011;8185;57.818;15.224;2022-08-03T07:39:20;4.67;;;3.17;;
16159;SDS011;8185;57.818;15.224;2022-08-03T07:41:47;6.17;;;3.30;;
16159;SDS011;8185;57.818;15.224;2022-08-03T07:44:16;6.20;;;4.07;;
16159;SDS011;8185;57.818;15.224;2022-08-03T07:46:43;5.93;;;3.93;;
16159;SDS011;8185;57.818;15.224;2022-08-03T07:49:11;6.30;;;3.87;;
16159;SDS011;8185;57.818;15.224;2022-08-03T07:51:38;5.43;;;3.43;;
16159;SDS011;8185;57.818;15.224;2022-08-03T07:54:05;4.37;;;3.30;;
16159;SDS011;8185;57.818;15.224;2022-08-03T07:56:36;5.30;;;3.33;;
16159;SDS011;8185;57.818;15.224;2022-08-03T07:59:03;5.80;;;3.33;;
16159;SDS011;8185;57.818;15.224;2022-08-03T08:01:30;3.57;;;3.27;;
16159;SDS011;8185;57.818;15.224;2022-08-03T08:04:00;4.90;;;3.40;;
16159;SDS011;8185;57.818;15.224;2022-08-03T08:06:27;6.67;;;3.50;;
16159;SDS011;8185;57.818;15.224;2022-08-03T08:08:56;4.97;;;3.67;;
16159;SDS011;8185;57.818;15.224;2022-08-03T08:11:26;4.10;;;3.70;;
16159;SDS011;8185;57.818;15.224;2022-08-03T08:13:55;7.90;;;4.53;;
16159;SDS011;8185;57.818;15.224;2022-08-03T08:16:22;6.77;;;4.37;;
16159;SDS011;8185;57.818;15.224;2022-08-03T08:18:49;8.83;;;3.83;;
16159;SDS011;8185;57.818;15.224;2022-08-03T08:21:17;6.57;;;3.50;;
16159;SDS011;8185;57.818;15.224;2022-08-03T08:23:44;6.60;;;3.30;;
16159;SDS011;8185;57.818;15.224;2022-08-03T08:26:11;7.97;;;4.27;;
16159;SDS011;8185;57.818;15.224;2022-08-03T08:28:39;5.93;;;3.20;;
16159;SDS011;8185;57.818;15.224;2022-08-03T08:31:07;7.13;;;3.30;;
16159;SDS011;8185;57.818;15.224;2022-08-03T08:33:35;4.77;;;2.80;;
16159;SDS011;8185;57.818;15.224;2022-08-03T08:36:02;5.07;;;3.37;;
16159;SDS011;8185;57.818;15.224;2022-08-03T08:38:29;6.37;;;3.07;;
16159;SDS011;8185;57.818;15.224;2022-08-03T08:40:56;5.60;;;2.90;;
16159;SDS011;8185;57.818;15.224;2022-08-03T08:43:23;5.53;;;2.83;;
16159;SDS011;8185;57.818;15.224;2022-08-03T08:45:51;5.57;;;2.90;;
16159;SDS011;8185;57.818;15.224;2022-08-03T08:48:24;6.73;;;2.70;;
16159;SDS011;8185;57.818;15.224;2022-08-03T08:50:53;3.90;;;2.27;;
16159;SDS011;8185;57.818;15.224;2022-08-03T08:53:22;4.13;;;2.50;;
16159;SDS011;8185;57.818;15.224;2022-08-03T08:55:54;5.17;;;2.30;;
16159;SDS011;8185;57.818;15.224;2022-08-03T08:58:23;3.47;;;2.30;;
16159;SDS011;8185;57.818;15.224;2022-08-03T09:00:54;4.83;;;2.40;;
16159;SDS011;8185;57.818;15.224;2022-08-03T09:03:21;4.43;;;2.38;;
16159;SDS011;8185;57.818;15.224;2022-08-03T09:05:50;4.97;;;2.80;;
16159;SDS011;8185;57.818;15.224;2022-08-03T09:08:18;4.32;;;2.60;;
16159;SDS011;8185;57.818;15.224;2022-08-03T09:10:47;5.28;;;2.60;;
16159;SDS011;8185;57.818;15.224;2022-08-03T09:13:15;3.90;;;2.60;;
16159;SDS011;8185;57.818;15.224;2022-08-03T09:15:42;5.45;;;2.13;;
16159;SDS011;8185;57.818;15.224;2022-08-03T09:18:10;3.25;;;1.77;;
16159;SDS011;8185;57.818;15.224;2022-08-03T09:20:39;6.97;;;2.38;;
16159;SDS011;8185;57.818;15.224;2022-08-03T09:23:07;4.53;;;1.92;;
16159;SDS011;8185;57.818;15.224;2022-08-03T09:25:36;4.65;;;2.28;;
16159;SDS011;8185;57.818;15.224;2022-08-03T09:28:07;5.53;;;2.10;;
16159;SDS011;8185;57.818;15.224;2022-08-03T09:30:36;4.38;;;1.95;;
16159;SDS011;8185;57.818;15.224;2022-08-03T09:33:06;3.38;;;1.70;;
16159;SDS011;8185;57.818;15.224;2022-08-03T09:35:40;3.63;;;1.92;;
16159;SDS011;8185;57.818;15.224;2022-08-03T09:38:12;2.88;;;1.52;;
16159;SDS011;8185;57.818;15.224;2022-08-03T09:40:40;3.28;;;1.70;;
16159;SDS011;8185;57.818;15.224;2022-08-03T09:43:08;5.13;;;1.83;;
16159;SDS011;8185;57.818;15.224;2022-08-03T09:45:36;4.43;;;1.70;;
16159;SDS011;8185;57.818;15.224;2022-08-03T09:48:23;3.80;;;1.98;;
16159;SDS011;8185;57.818;15.224;2022-08-03T09:50:53;4.00;;;1.50;;
16159;SDS011;8185;57.818;15.224;2022-08-03T09:53:22;4.28;;;1.80;;
16159;SDS011;8185;57.818;15.224;2022-08-03T09:55:50;5.53;;;1.95;;
16159;SDS011;8185;57.818;15.224;2022-08-03T09:58:19;6.30;;;2.15;;
16159;SDS011;8185;57.818;15.224;2022-08-03T10:00:51;4.50;;;2.03;;
16159;SDS011;8185;57.818;15.224;2022-08-03T10:03:20;3.40;;;1.50;;
16159;SDS011;8185;57.818;15.224;2022-08-03T10:05:47;4.07;;;1.75;;
16159;SDS011;8185;57.818;15.224;2022-08-03T10:08:16;3.90;;;1.98;;
16159;SDS011;8185;57.818;15.224;2022-08-03T10:10:48;3.03;;;1.38;;
16159;SDS011;8185;57.818;15.224;2022-08-03T10:13:18;3.08;;;1.98;;
16159;SDS011;8185;57.818;15.224;2022-08-03T10:15:47;2.72;;;1.58;;
16159;SDS011;8185;57.818;15.224;2022-08-03T10:18:14;3.80;;;1.65;;
16159;SDS011;8185;57.818;15.224;2022-08-03T10:20:42;6.32;;;1.88;;
16159;SDS011;8185;57.818;15.224;2022-08-03T10:23:17;3.20;;;1.40;;
16159;SDS011;8185;57.818;15.224;2022-08-03T10:25:45;3.38;;;1.90;;
16159;SDS011;8185;57.818;15.224;2022-08-03T10:28:15;3.25;;;1.73;;
16159;SDS011;8185;57.818;15.224;2022-08-03T10:30:47;5.63;;;1.85;;
16159;SDS011;8185;57.818;15.224;2022-08-03T10:33:16;4.93;;;1.92;;
16159;SDS011;8185;57.818;15.224;2022-08-03T10:35:46;3.30;;;1.30;;
16159;SDS011;8185;57.818;15.224;2022-08-03T10:38:18;2.38;;;1.33;;
16159;SDS011;8185;57.818;15.224;2022-08-03T10:40:49;4.32;;;1.70;;
16159;SDS011;8185;57.818;15.224;2022-08-03T10:43:21;4.07;;;1.30;;
16159;SDS011;8185;57.818;15.224;2022-08-03T10:45:55;6.03;;;1.65;;
16159;SDS011;8185;57.818;15.224;2022-08-03T10:48:22;3.28;;;1.40;;
16159;SDS011;8185;57.818;15.224;2022-08-03T10:50:51;3.20;;;1.50;;
16159;SDS011;8185;57.818;15.224;2022-08-03T10:56:04;2.22;;;1.35;;
16159;SDS011;8185;57.818;15.224;2022-08-03T10:59:09;5.68;;;1.75;;
16159;SDS011;8185;57.818;15.224;2022-08-03T11:01:49;2.40;;;1.48;;
16159;SDS011;8185;57.818;15.224;2022-08-03T11:04:17;3.03;;;1.58;;
16159;SDS011;8185;57.818;15.224;2022-08-03T11:06:46;3.58;;;1.30;;
16159;SDS011;8185;57.818;15.224;2022-08-03T11:09:15;5.57;;;1.50;;
16159;SDS011;8185;57.818;15.224;2022-08-03T11:11:45;3.70;;;1.50;;
16159;SDS011;8185;57.818;15.224;2022-08-03T11:14:14;4.43;;;1.38;;
16159;SDS011;8185;57.818;15.224;2022-08-03T11:16:43;3.03;;;1.42;;
16159;SDS011;8185;57.818;15.224;2022-08-03T11:19:13;5.72;;;1.50;;
16159;SDS011;8185;57.818;15.224;2022-08-03T11:21:56;4.57;;;1.65;;
16159;SDS011;8185;57.818;15.224;2022-08-03T11:27:27;4.07;;;1.60;;
16159;SDS011;8185;57.818;15.224;2022-08-03T11:29:57;2.60;;;1.42;;
16159;SDS011;8185;57.818;15.224;2022-08-03T11:35:17;2.35;;;1.40;;
16159;SDS011;8185;57.818;15.224;2022-08-03T11:40:35;4.18;;;1.33;;
16159;SDS011;8185;57.818;15.224;2022-08-03T11:43:09;3.40;;;1.20;;
16159;SDS011;8185;57.818;15.224;2022-08-03T11:45:59;2.60;;;1.23;;
16159;SDS011;8185;57.818;15.224;2022-08-03T11:48:32;3.55;;;1.10;;
16159;SDS011;8185;57.818;15.224;2022-08-03T11:51:03;2.83;;;1.50;;
16159;SDS011;8185;57.818;15.224;2022-08-03T11:53:32;3.95;;;1.33;;
16159;SDS011;8185;57.818;15.224;2022-08-03T11:56:01;2.65;;;1.20;;
16159;SDS011;8185;57.818;15.224;2022-08-03T11:58:29;4.22;;;1.42;;
16159;SDS011;8185;57.818;15.224;2022-08-03T12:01:02;2.95;;;1.33;;
16159;SDS011;8185;57.818;15.224;2022-08-03T12:03:30;3.40;;;1.35;;
16159;SDS011;8185;57.818;15.224;2022-08-03T12:05:58;6.80;;;1.42;;
16159;SDS011;8185;57.818;15.224;2022-08-03T12:08:30;4.28;;;1.35;;
16159;SDS011;8185;57.818;15.224;2022-08-03T12:10:59;2.28;;;1.10;;
16159;SDS011;8185;57.818;15.224;2022-08-03T12:13:35;3.47;;;1.58;;
16159;SDS011;8185;57.818;15.224;2022-08-03T12:16:04;7.20;;;1.70;;
16159;SDS011;8185;57.818;15.224;2022-08-03T12:18:32;2.55;;;1.45;;
16159;SDS011;8185;57.818;15.224;2022-08-03T12:21:03;5.38;;;1.73;;
16159;SDS011;8185;57.818;15.224;2022-08-03T12:23:32;3.47;;;1.65;;
16159;SDS011;8185;57.818;15.224;2022-08-03T12:26:00;3.33;;;1.73;;
16159;SDS011;8185;57.818;15.224;2022-08-03T12:28:28;3.80;;;1.50;;
16159;SDS011;8185;57.818;15.224;2022-08-03T12:31:00;7.88;;;2.03;;
16159;SDS011;8185;57.818;15.224;2022-08-03T12:33:30;3.20;;;1.80;;
16159;SDS011;8185;57.818;15.224;2022-08-03T12:36:02;4.03;;;1.70;;
16159;SDS011;8185;57.818;15.224;2022-08-03T12:38:32;4.20;;;1.65;;
16159;SDS011;8185;57.818;15.224;2022-08-03T12:41:03;5.10;;;1.60;;
16159;SDS011;8185;57.818;15.224;2022-08-03T12:43:33;3.10;;;1.52;;
16159;SDS011;8185;57.818;15.224;2022-08-03T12:46:11;4.15;;;1.45;;
16159;SDS011;8185;57.818;15.224;2022-08-03T12:51:25;3.53;;;1.60;;
16159;SDS011;8185;57.818;15.224;2022-08-03T12:53:53;2.97;;;1.45;;
16159;SDS011;8185;57.818;15.224;2022-08-03T12:56:21;4.75;;;1.50;;
16159;SDS011;8185;57.818;15.224;2022-08-03T12:58:48;2.38;;;1.40;;
16159;SDS011;8185;57.818;15.224;2022-08-03T13:01:17;4.53;;;2.13;;
16159;SDS011;8185;57.818;15.224;2022-08-03T13:03:47;5.43;;;2.25;;
16159;SDS011;8185;57.818;15.224;2022-08-03T13:06:15;4.30;;;1.80;;
16159;SDS011;8185;57.818;15.224;2022-08-03T13:08:44;3.83;;;1.58;;
16159;SDS011;8185;57.818;15.224;2022-08-03T13:11:21;3.90;;;1.80;;
16159;SDS011;8185;57.818;15.224;2022-08-03T13:13:50;3.70;;;1.58;;
16159;SDS011;8185;57.818;15.224;2022-08-03T13:16:19;2.83;;;1.42;;
16159;SDS011;8185;57.818;15.224;2022-08-03T13:18:47;6.30;;;1.63;;
16159;SDS011;8185;57.818;15.224;2022-08-03T13:21:16;3.72;;;1.95;;
16159;SDS011;8185;57.818;15.224;2022-08-03T13:23:45;2.28;;;1.45;;
16159;SDS011;8185;57.818;15.224;2022-08-03T13:26:12;4.10;;;1.45;;
16159;SDS011;8185;57.818;15.224;2022-08-03T13:28:40;4.55;;;1.63;;
16159;SDS011;8185;57.818;15.224;2022-08-03T13:31:07;4.03;;;1.40;;
16159;SDS011;8185;57.818;15.224;2022-08-03T13:33:36;4.88;;;1.75;;
16159;SDS011;8185;57.818;15.224;2022-08-03T13:36:04;2.92;;;1.42;;
16159;SDS011;8185;57.818;15.224;2022-08-03T13:38:32;4.90;;;1.58;;
16159;SDS011;8185;57.818;15.224;2022-08-03T13:40:59;3.13;;;1.60;;
16159;SDS011;8185;57.818;15.224;2022-08-03T13:43:28;2.70;;;1.20;;
16159;SDS011;8185;57.818;15.224;2022-08-03T13:45:56;5.47;;;2.03;;
16159;SDS011;8185;57.818;15.224;2022-08-03T13:48:23;2.97;;;1.83;;
16159;SDS011;8185;57.818;15.224;2022-08-03T13:50:52;2.10;;;1.20;;
16159;SDS011;8185;57.818;15.224;2022-08-03T13:53:19;2.65;;;1.33;;
16159;SDS011;8185;57.818;15.224;2022-08-03T13:55:46;1.25;;;1.15;;
16159;SDS011;8185;57.818;15.224;2022-08-03T13:58:14;2.85;;;1.17;;
16159;SDS011;8185;57.818;15.224;2022-08-03T14:00:41;4.55;;;1.30;;
16159;SDS011;8185;57.818;15.224;2022-08-03T14:03:08;1.55;;;1.17;;
16159;SDS011;8185;57.818;15.224;2022-08-03T14:05:35;5.47;;;1.30;;
16159;SDS011;8185;57.818;15.224;2022-08-03T14:08:05;4.70;;;1.42;;
16159;SDS011;8185;57.818;15.224;2022-08-03T14:10:33;2.58;;;1.13;;
16159;SDS011;8185;57.818;15.224;2022-08-03T14:13:01;1.75;;;1.10;;
16159;SDS011;8185;57.818;15.224;2022-08-03T14:15:29;2.47;;;1.30;;
16159;SDS011;8185;57.818;15.224;2022-08-03T14:17:56;3.17;;;1.45;;
16159;SDS011;8185;57.818;15.224;2022-08-03T14:20:24;3.80;;;1.33;;
16159;SDS011;8185;57.818;15.224;2022-08-03T14:22:51;2.25;;;1.27;;
16159;SDS011;8185;57.818;15.224;2022-08-03T14:25:21;3.80;;;1.58;;
16159;SDS011;8185;57.818;15.224;2022-08-03T14:27:48;6.63;;;1.75;;
16159;SDS011;8185;57.818;15.224;2022-08-03T14:30:15;2.65;;;1.48;;
16159;SDS011;8185;57.818;15.224;2022-08-03T14:32:43;2.15;;;1.50;;
16159;SDS011;8185;57.818;15.224;2022-08-03T14:35:11;3.33;;;1.58;;
16159;SDS011;8185;57.818;15.224;2022-08-03T14:37:38;3.08;;;1.58;;
16159;SDS011;8185;57.818;15.224;2022-08-03T14:40:05;3.10;;;1.52;;
16159;SDS011;8185;57.818;15.224;2022-08-03T14:42:34;2.25;;;1.58;;
16159;SDS011;8185;57.818;15.224;2022-08-03T14:45:02;2.05;;;1.73;;
16159;SDS011;8185;57.818;15.224;2022-08-03T14:47:29;4.63;;;1.50;;
16159;SDS011;8185;57.818;15.224;2022-08-03T14:49:57;2.55;;;1.70;;
16159;SDS011;8185;57.818;15.224;2022-08-03T14:52:24;3.70;;;1.60;;
16159;SDS011;8185;57.818;15.224;2022-08-03T14:54:51;2.97;;;1.73;;
16159;SDS011;8185;57.818;15.224;2022-08-03T14:57:18;3.33;;;1.83;;
16159;SDS011;8185;57.818;15.224;2022-08-03T14:59:47;4.80;;;2.08;;
16159;SDS011;8185;57.818;15.224;2022-08-03T15:02:14;4.38;;;2.03;;
16159;SDS011;8185;57.818;15.224;2022-08-03T15:04:42;5.90;;;1.63;;
16159;SDS011;8185;57.818;15.224;2022-08-03T15:07:09;2.45;;;1.30;;
16159;SDS011;8185;57.818;15.224;2022-08-03T15:09:36;3.53;;;1.67;;
16159;SDS011;8185;57.818;15.224;2022-08-03T15:12:04;4.50;;;1.42;;
16159;SDS011;8185;57.818;15.224;2022-08-03T15:14:31;5.00;;;1.50;;